logo
App data

Sweezy Gunner

Sweezy Gunner is an eye melting, brain bending, mouse squeezing 2D Shoot em up. destroy everything in your path, Upgrade the Sweezy Gunner ship. A Large open World! Travel through the lush green fields, frozen tundra and arid desert. Explore the depths of the many dungeons, caves and temples and collect that tasty loot!
Store | Hub | SteamDB | Site
Developer: Windybeard Publisher: Windybeard
Genre: Action, Indie
Languages: English
Tags: Indie (35), Action (35), Bullet Hell (17), Space (13), Shoot 'Em Up (12), Shooter (11)
Category: Single-player, Steam Achievements, Steam Trading Cards
Release date: May 6, 2014
Price: $0.99 75%
Old userscore: 83% Owners: 20,000 .. 50,000
Followers: 287
Peak concurrent players yesterday: 2
Playtime total: 03:11 (average) 03:36 (median)

Steam Spy is still in beta, so expect major bugs.

Owners data:

Access restricted.

This feature is only available to users with special access rights. Sorry.

If you want to proceed, you need to register or log in first and then back Steam Spy on Patreon. Look for Indie or Pro pledge.

Don't forget to use the same email as on Steam Spy!

Audience in 2 weeks:

Access restricted.

This feature is only available to users with special access rights. Sorry.

If you want to proceed, you need to register or log in first and then back Steam Spy on Patreon. Look for Indie or Pro pledge.

Don't forget to use the same email as on Steam Spy!

Peak daily concurrent players:

CCU data courtesy of SteamDB. Used with permission.

Hourly concurrent players:

Daily Twitch stats:

Hourly Twitch stats:

Followers over time

Access restricted.

This feature is only available to users with special access rights. Sorry.

If you want to proceed, you need to register or log in first and then back Steam Spy on Patreon. Look for Indie or Pro pledge.

Don't forget to use the same email as on Steam Spy!

Views for top 50 videos on YouTube for this game:

Games similar to this one:

# Game Release date
Price
Score rank
(Userscore / Metascore)
Owners
Players
Playtime (Median)
1 Narcissu 10th Anniversary Anthology Project Jan 27, 2016 $1.19N/A (N/A)50,000 .. 100,0000%00:00 (00:00)
2 Abduction Bit Nov 15, 2016 $0.49N/A (N/A)0 .. 20,0000%00:00 (00:00)
3 Sophie's Curse Mar 16, 2016 $2.49N/A (N/A)50,000 .. 100,0000%00:00 (00:00)
4 Brother Wings Jan 10, 2017 $0.49N/A (N/A)100,000 .. 200,0000%00:00 (00:00)
5 A grande bagunça espacial - The big space mess Apr 5, 2016 $0.99N/A (N/A)200,000 .. 500,0000%00:00 (00:00)
6 In Between Aug 21, 2015 $2.99N/A (N/A/68%)50,000 .. 100,0000%00:00 (00:00)
7 Burst Mar 14, 2016 N/AN/A (N/A)50,000 .. 100,0000%00:00 (00:00)
8 Robot vs Birds Zombies Jun 1, 2013 $0.99N/A (N/A)500,000 .. 1,000,0000%00:00 (00:00)
9 Melting Hearts: Our Love Will Grow 2 Apr 29, 2016 N/AN/A (N/A)20,000 .. 50,0000%00:00 (00:00)
10 Arclight Cascade Aug 25, 2015 FreeN/A (N/A)0 .. 20,0000%00:00 (00:00)
11 The Dolls: Reborn May 25, 2016 $0.49N/A (N/A)20,000 .. 50,0000%00:00 (00:00)
12 12 Labours of Hercules IV: Mother Nature (Platinum Edition) Dec 25, 2015 $1.79N/A (N/A)20,000 .. 50,0000%00:00 (00:00)
13 Richie's Plank Experience Dec 18, 2017 $14.99N/A (N/A)50,000 .. 100,0000%00:00 (00:00)
14 Lift It Jan 20, 2017 $0.49N/A (N/A)50,000 .. 100,0000%00:00 (00:00)
15 The Legions of Rome Sep 16, 2016 $2.99N/A (N/A)0 .. 20,0000%00:00 (00:00)
16 Cibele Nov 2, 2015 $4.49N/A (N/A/71%)50,000 .. 100,0000%00:00 (00:00)
17 Machine Hunt May 15, 2017 $0.5N/A (N/A)50,000 .. 100,0000%00:00 (00:00)
18 Wildlife Park 3 May 12, 2014 $6.49N/A (N/A)100,000 .. 200,0000%00:00 (00:00)
19 Luxor Evolved Mar 1, 2012 $3.99N/A (N/A)50,000 .. 100,0000%00:00 (00:00)
20 Sokobond Jul 21, 2014 $2.99N/A (N/A/82%)20,000 .. 50,0000%00:00 (00:00)
21 Divide By Sheep Jul 2, 2015 $1.24N/A (N/A/83%)2,000,000 .. 5,000,0000%00:00 (00:00)
22 Pressured Jul 18, 2014 $0.59N/A (N/A)200,000 .. 500,0000%00:00 (00:00)
23 Aqua Kitty - Milk Mine Defender Feb 3, 2014 $2.09N/A (N/A)20,000 .. 50,0000%00:00 (00:00)
24 AaAaAA!!! - A Reckless Disregard for Gravity Sep 3, 2009 $9.99N/A (N/A/81%)100,000 .. 200,0000%00:00 (00:00)
25 Tribloos 2 Jan 12, 2013 $2.49N/A (N/A)100,000 .. 200,0000%00:00 (00:00)
26 Luxor: 5th Passage Jan 25, 2011 $3.99N/A (N/A)50,000 .. 100,0000%00:00 (00:00)
27 About Love, Hate and the other ones Dec 12, 2014 $1.39N/A (N/A)100,000 .. 200,0000%00:00 (00:00)
28 Glowfish Sep 30, 2011 $3.99N/A (N/A)20,000 .. 50,0000%00:00 (00:00)
29 On Rusty Trails Jun 13, 2016 $2.59N/A (N/A/77%)20,000 .. 50,0000%00:00 (00:00)
30 Governor of Poker 2 - Premium Edition Oct 11, 2010 $14.99N/A (N/A)20,000 .. 50,0000%00:00 (00:00)
31 Diadra Empty Jul 21, 2015 $5.99N/A (N/A)20,000 .. 50,0000%00:00 (00:00)
32 Ancients of Ooga May 20, 2011 $8.99N/A (N/A)20,000 .. 50,0000%00:00 (00:00)
33 Strata May 29, 2014 $7.99N/A (N/A)20,000 .. 50,0000%00:00 (00:00)
34 Blocks That Matter Aug 19, 2011 $4.99N/A (N/A/72%)200,000 .. 500,0000%00:00 (00:00)
35 Winexy Jan 13, 2017 $0.49N/A (N/A)50,000 .. 100,0000%00:00 (00:00)
36 Dungeon Painter Studio Feb 26, 2017 $14.99N/A (N/A)50,000 .. 100,0000%00:00 (00:00)
37 The guard of dungeon Mar 7, 2017 $0.69N/A (N/A)20,000 .. 50,0005.56%04:59 (01:39)
38 Pixel Shopkeeper Jul 20, 2017 $6.99N/A (N/A)0 .. 20,0000%00:00 (00:00)
39 Point Perfect Jul 17, 2014 $0.99N/A (N/A)50,000 .. 100,0000%00:00 (00:00)
40 SinaRun Oct 26, 2015 $2.99N/A (N/A)20,000 .. 50,0000%00:00 (00:00)
41 Super Lemonade Factory Mar 15, 2012 $0.99N/A (N/A)0 .. 20,0000%00:00 (00:00)
42 Letter Quest: Grimm's Journey Nov 20, 2014 $1.99N/A (N/A/73%)100,000 .. 200,0000%00:00 (00:00)
43 Metrocide Oct 20, 2014 $12.99N/A (N/A/68%)50,000 .. 100,0000%00:00 (00:00)
44 Automation - The Car Company Tycoon Game Mar 12, 2015 $25.49N/A (N/A)200,000 .. 500,0009.09%11:46 (03:55)
45 GamersGoMakers Aug 8, 2014 $8.99N/A (N/A)20,000 .. 50,0000%00:00 (00:00)
46 Swipecart May 8, 2014 $2.99N/A (N/A)50,000 .. 100,0000%00:00 (00:00)
47 Jamsouls Aug 24, 2014 $3.19N/A (N/A)0 .. 20,0000%00:00 (00:00)
48 Spy Chameleon - RGB Agent Jun 11, 2014 $2.49N/A (N/A)20,000 .. 50,0000%00:00 (00:00)
49 Bloop Reloaded Feb 6, 2015 FreeN/A (N/A)100,000 .. 200,0000%00:00 (00:00)
50 Ichi Jun 12, 2014 $0.99N/A (N/A)100,000 .. 200,0000%00:00 (00:00)
51 A Good Snowman Is Hard To Build Feb 25, 2015 $2.99N/A (N/A)50,000 .. 100,0000%00:00 (00:00)
52 The Blue Flamingo Nov 18, 2014 $1.24N/A (N/A/55%)100,000 .. 200,0000%00:00 (00:00)
53 Quantum Rush Champions Dec 4, 2014 $2.99N/A (N/A)20,000 .. 50,0000%00:00 (00:00)
54 Cyto Jul 10, 2014 $3.99N/A (N/A)20,000 .. 50,0000%00:00 (00:00)
55 Laserlife Sep 22, 2015 $3.99N/A (N/A)20,000 .. 50,0000%00:00 (00:00)
56 Castle Jan 7, 2015 $4.99N/A (N/A)20,000 .. 50,0000%00:00 (00:00)
57 Streets of Chaos Jan 23, 2015 N/AN/A (N/A)100,000 .. 200,0000%00:00 (00:00)
58 Cubot Jan 8, 2015 $1.99N/A (N/A)20,000 .. 50,0000%00:00 (00:00)
59 GunWorld Nov 16, 2014 $1.99N/A (N/A)0 .. 20,0000%00:00 (00:00)
60 Death Goat Jun 7, 2016 N/AN/A (N/A)20,000 .. 50,0000%00:00 (00:00)
61 Over The Void Nov 11, 2014 $4.99N/A (N/A)20,000 .. 50,0000%00:00 (00:00)
62 Unhack Feb 20, 2014 $1.99N/A (N/A)20,000 .. 50,0000%00:00 (00:00)
63 Shutshimi Aug 25, 2015 $1.99N/A (N/A)50,000 .. 100,0000%00:00 (00:00)
64 HyperRogue Jan 16, 2015 $4.99N/A (N/A)20,000 .. 50,0000%00:00 (00:00)
65 Square Heroes Apr 9, 2015 $3.99N/A (N/A)20,000 .. 50,0000%00:00 (00:00)
66 Bob Was Hungry Aug 19, 2015 $0.99N/A (N/A)50,000 .. 100,0000%00:00 (00:00)
67 Steam and Metal Feb 9, 2015 $0.74N/A (N/A)0 .. 20,0000%00:00 (00:00)
68 Pixel Puzzles 2: Birds Feb 20, 2015 $1.24N/A (N/A)200,000 .. 500,0000%00:00 (00:00)
69 Mech Marines: Steel March Jan 9, 2015 N/AN/A (N/A)0 .. 20,0000%00:00 (00:00)
70 Flame Over May 28, 2015 $1.19N/A (N/A)20,000 .. 50,0000%00:00 (00:00)
71 Marble Duel: Sphere-Matching Tactical Fantasy Nov 12, 2015 $4.49N/A (N/A)50,000 .. 100,0000%00:00 (00:00)
72 Astro Emporia Feb 2, 2015 $0.49N/A (N/A)20,000 .. 50,0000%00:00 (00:00)
73 Botology Jun 24, 2015 $0.49N/A (N/A)50,000 .. 100,0000%00:00 (00:00)
74 Fingered Aug 18, 2015 $0.93N/A (N/A)50,000 .. 100,0000%00:00 (00:00)
75 Red Goblin: Cursed Forest May 15, 2015 $0.49N/A (N/A)0 .. 20,0000%00:00 (00:00)
76 Painters Guild Sep 1, 2015 $1.99N/A (N/A)20,000 .. 50,0000%00:00 (00:00)
77 Quadrant May 26, 2015 $4.99N/A (N/A)0 .. 20,0000%00:00 (00:00)
78 Dodge Mar 16, 2015 $1.99N/A (N/A)20,000 .. 50,0000%00:00 (00:00)
79 Demon Hearts Aug 7, 2015 $2.99N/A (N/A)0 .. 20,0000%00:00 (00:00)
80 Avalanche 2: Super Avalanche Jun 11, 2015 $0.49N/A (N/A)50,000 .. 100,0000%00:00 (00:00)
81 Aero's Quest Jun 8, 2015 $4.99N/A (N/A)0 .. 20,0000%00:00 (00:00)
82 Stephen's Sausage Roll Apr 18, 2016 $5.99N/A (N/A/90%)20,000 .. 50,0000%00:00 (00:00)
83 Power of Love Jul 21, 2015 $0.49N/A (N/A)20,000 .. 50,0000%00:00 (00:00)
84 Pester Jan 25, 2013 $0.49N/A (N/A)100,000 .. 200,0000%00:00 (00:00)
85 Gem Wars: Attack of the Jiblets Dec 15, 2015 FreeN/A (N/A)20,000 .. 50,0000%00:00 (00:00)
86 Unium Feb 3, 2015 $0.59N/A (N/A)0 .. 20,0000%00:00 (00:00)
87 Korwin The Game Sep 19, 2015 $1.99N/A (N/A)0 .. 20,0000%00:00 (00:00)
88 The Reject Demon: Toko Chapter 0 — Prelude May 9, 2015 $4.99N/A (N/A)20,000 .. 50,0000%00:00 (00:00)
89 Super Star Path Jun 22, 2015 $2.49N/A (N/A)50,000 .. 100,0000%00:00 (00:00)

Tags over time:

Access restricted.

This feature is only available to users with special access rights. Sorry.

If you want to proceed, you need to register or log in first and then back Steam Spy on Patreon. Look for Indie or Pro pledge.

Don't forget to use the same email as on Steam Spy!

Owners of this game also own:

Access restricted.

This feature is only available to users with special access rights. Sorry.

If you want to proceed, you need to register or log in first and then back Steam Spy on Patreon. Look for Indie or Pro pledge.

Don't forget to use the same email as on Steam Spy!

Playtime distribution:

Access restricted.

This feature is only available to users with special access rights. Sorry.

If you want to proceed, you need to register or log in first and then back Steam Spy on Patreon. Look for Indie or Pro pledge.

Don't forget to use the same email as on Steam Spy!

Playtime (2 weeks):

Access restricted.

This feature is only available to users with special access rights. Sorry.

If you want to proceed, you need to register or log in first and then back Steam Spy on Patreon. Look for Indie or Pro pledge.

Don't forget to use the same email as on Steam Spy!

User reviews:

Login required.

Please register or log in to see this information.